sensor_id;sensor_type;location;lat;lon;timestamp;pressure;altitude;pressure_sealevel;temperature;humidity
34921;BME280;21128;50.016;20.002;2023-04-10T00:00:03;99649.30;;;6.01;100.00
34921;BME280;21128;50.016;20.002;2023-04-10T00:02:51;99640.84;;;5.97;100.00
34921;BME280;21128;50.016;20.002;2023-04-10T00:05:19;99640.91;;;5.96;100.00
34921;BME280;21128;50.016;20.002;2023-04-10T00:07:46;99634.11;;;5.93;100.00
34921;BME280;21128;50.016;20.002;2023-04-10T00:10:14;99636.83;;;5.91;100.00
34921;BME280;21128;50.016;20.002;2023-04-10T00:12:43;99630.91;;;5.88;100.00
34921;BME280;21128;50.016;20.002;2023-04-10T00:15:10;99626.72;;;5.85;100.00
34921;BME280;21128;50.016;20.002;2023-04-10T00:17:38;99627.02;;;5.81;100.00
34921;BME280;21128;50.016;20.002;2023-04-10T00:20:06;99626.08;;;5.82;100.00
34921;BME280;21128;50.016;20.002;2023-04-10T00:22:34;99621.87;;;5.79;100.00
34921;BME280;21128;50.016;20.002;2023-04-10T00:25:02;99627.28;;;5.76;100.00
34921;BME280;21128;50.016;20.002;2023-04-10T00:27:30;99620.39;;;5.75;100.00
34921;BME280;21128;50.016;20.002;2023-04-10T00:29:57;99617.11;;;5.72;100.00
34921;BME280;21128;50.016;20.002;2023-04-10T00:32:25;99611.99;;;5.70;100.00
34921;BME280;21128;50.016;20.002;2023-04-10T00:34:53;99610.52;;;5.66;100.00
34921;BME280;21128;50.016;20.002;2023-04-10T00:37:21;99608.08;;;5.63;100.00
34921;BME280;21128;50.016;20.002;2023-04-10T00:39:51;99612.55;;;5.61;100.00
34921;BME280;21128;50.016;20.002;2023-04-10T00:42:21;99624.02;;;5.58;100.00
34921;BME280;21128;50.016;20.002;2023-04-10T00:44:49;99621.50;;;5.57;100.00
34921;BME280;21128;50.016;20.002;2023-04-10T00:47:17;99622.50;;;5.54;100.00
34921;BME280;21128;50.016;20.002;2023-04-10T00:49:45;99631.25;;;5.53;100.00
34921;BME280;21128;50.016;20.002;2023-04-10T00:52:19;99634.89;;;5.51;100.00
34921;BME280;21128;50.016;20.002;2023-04-10T00:54:49;99633.95;;;5.52;100.00
34921;BME280;21128;50.016;20.002;2023-04-10T00:57:18;99629.67;;;5.51;100.00
34921;BME280;21128;50.016;20.002;2023-04-10T00:59:45;99630.42;;;5.53;100.00
34921;BME280;21128;50.016;20.002;2023-04-10T01:02:14;99630.42;;;5.53;100.00
34921;BME280;21128;50.016;20.002;2023-04-10T01:04:43;99633.95;;;5.52;100.00
34921;BME280;21128;50.016;20.002;2023-04-10T01:07:20;99631.34;;;5.52;100.00
34921;BME280;21128;50.016;20.002;2023-04-10T01:13:10;99620.83;;;5.53;100.00
34921;BME280;21128;50.016;20.002;2023-04-10T01:15:51;99625.88;;;5.56;100.00
34921;BME280;21128;50.016;20.002;2023-04-10T01:18:33;99623.17;;;5.58;100.00
34921;BME280;21128;50.016;20.002;2023-04-10T01:21:07;99623.91;;;5.60;100.00
34921;BME280;21128;50.016;20.002;2023-04-10T01:29:31;99607.44;;;5.59;100.00
34921;BME280;21128;50.016;20.002;2023-04-10T01:32:02;99611.81;;;5.59;100.00
34921;BME280;21128;50.016;20.002;2023-04-10T01:34:36;99616.09;;;5.60;100.00
34921;BME280;21128;50.016;20.002;2023-04-10T01:37:11;99604.73;;;5.61;100.00
34921;BME280;21128;50.016;20.002;2023-04-10T01:39:41;99609.78;;;5.64;100.00
34921;BME280;21128;50.016;20.002;2023-04-10T01:42:10;99606.14;;;5.67;100.00
34921;BME280;21128;50.016;20.002;2023-04-10T01:44:41;99612.09;;;5.69;100.00
34921;BME280;21128;50.016;20.002;2023-04-10T01:47:13;99606.88;;;5.69;100.00
34921;BME280;21128;50.016;20.002;2023-04-10T01:49:43;99610.22;;;5.71;100.00
34921;BME280;21128;50.016;20.002;2023-04-10T01:52:13;99602.34;;;5.72;100.00
34921;BME280;21128;50.016;20.002;2023-04-10T01:54:42;99607.55;;;5.72;100.00
34921;BME280;21128;50.016;20.002;2023-04-10T01:57:11;99613.50;;;5.74;100.00
34921;BME280;21128;50.016;20.002;2023-04-10T01:59:40;99619.55;;;5.75;100.00
34921;BME280;21128;50.016;20.002;2023-04-10T02:02:08;99616.84;;;5.76;100.00
34921;BME280;21128;50.016;20.002;2023-04-10T02:04:37;99609.77;;;5.78;100.00
34921;BME280;21128;50.016;20.002;2023-04-10T02:07:18;99617.48;;;5.80;100.00
34921;BME280;21128;50.016;20.002;2023-04-10T02:09:58;99615.75;;;5.80;100.00
34921;BME280;21128;50.016;20.002;2023-04-10T02:12:37;99617.48;;;5.80;100.00
34921;BME280;21128;50.016;20.002;2023-04-10T02:15:05;99614.98;;;5.78;100.00
34921;BME280;21128;50.016;20.002;2023-04-10T02:17:35;99625.31;;;5.80;100.00
34921;BME280;21128;50.016;20.002;2023-04-10T02:20:03;99625.25;;;5.81;100.00
34921;BME280;21128;50.016;20.002;2023-04-10T02:22:32;99618.36;;;5.80;100.00
34921;BME280;21128;50.016;20.002;2023-04-10T02:25:03;99619.20;;;5.81;100.00
34921;BME280;21128;50.016;20.002;2023-04-10T02:27:34;99619.09;;;5.82;100.00
34921;BME280;21128;50.016;20.002;2023-04-10T02:30:02;99619.09;;;5.82;100.00
34921;BME280;21128;50.016;20.002;2023-04-10T02:32:30;99619.00;;;5.84;100.00
34921;BME280;21128;50.016;20.002;2023-04-10T02:34:59;99621.70;;;5.82;100.00
34921;BME280;21128;50.016;20.002;2023-04-10T02:37:27;99614.81;;;5.81;100.00
34921;BME280;21128;50.016;20.002;2023-04-10T02:39:54;99607.92;;;5.80;100.00
34921;BME280;21128;50.016;20.002;2023-04-10T02:42:22;99615.75;;;5.80;100.00
34921;BME280;21128;50.016;20.002;2023-04-10T02:44:48;99611.44;;;5.79;100.00
34921;BME280;21128;50.016;20.002;2023-04-10T02:47:15;99609.66;;;5.80;100.00
34921;BME280;21128;50.016;20.002;2023-04-10T02:49:44;99615.75;;;5.80;100.00
34921;BME280;21128;50.016;20.002;2023-04-10T02:52:11;99621.70;;;5.82;100.00
34921;BME280;21128;50.016;20.002;2023-04-10T02:54:38;99623.38;;;5.83;100.00
34921;BME280;21128;50.016;20.002;2023-04-10T02:57:05;99621.61;;;5.84;100.00
34921;BME280;21128;50.016;20.002;2023-04-10T02:59:33;99619.73;;;5.86;100.00
34921;BME280;21128;50.016;20.002;2023-04-10T03:02:00;99617.02;;;5.87;100.00
34921;BME280;21128;50.016;20.002;2023-04-10T03:04:27;99618.63;;;5.90;100.00
34921;BME280;21128;50.016;20.002;2023-04-10T03:06:54;99623.78;;;5.91;100.00
34921;BME280;21128;50.016;20.002;2023-04-10T03:09:21;99626.19;;;5.95;100.00
34921;BME280;21128;50.016;20.002;2023-04-10T03:11:48;99623.48;;;5.96;100.00
34921;BME280;21128;50.016;20.002;2023-04-10T03:14:16;99621.71;;;5.97;100.00
34921;BME280;21128;50.016;20.002;2023-04-10T03:16:49;99626.02;;;5.98;100.00
34921;BME280;21128;50.016;20.002;2023-04-10T03:19:16;99619.03;;;5.98;100.00
34921;BME280;21128;50.016;20.002;2023-04-10T03:21:45;99620.61;;;6.01;100.00
34921;BME280;21128;50.016;20.002;2023-04-10T03:24:13;99608.40;;;6.01;100.00
34921;BME280;21128;50.016;20.002;2023-04-10T03:26:41;99615.29;;;6.02;100.00
34921;BME280;21128;50.016;20.002;2023-04-10T03:29:09;99610.81;;;6.04;100.00
34921;BME280;21128;50.016;20.002;2023-04-10T03:31:37;99611.64;;;6.05;100.00
34921;BME280;21128;50.016;20.002;2023-04-10T03:34:08;99612.41;;;6.07;100.00
34921;BME280;21128;50.016;20.002;2023-04-10T03:36:36;99609.60;;;6.10;100.00
34921;BME280;21128;50.016;20.002;2023-04-10T03:39:03;99613.98;;;6.09;100.00
34921;BME280;21128;50.016;20.002;2023-04-10T03:41:31;99606.99;;;6.10;100.00
34921;BME280;21128;50.016;20.002;2023-04-10T03:43:59;99608.56;;;6.12;100.00
34921;BME280;21128;50.016;20.002;2023-04-10T03:46:29;99609.33;;;6.14;100.00
34921;BME280;21128;50.016;20.002;2023-04-10T03:48:57;99607.56;;;6.15;100.00
34921;BME280;21128;50.016;20.002;2023-04-10T03:51:26;99620.50;;;6.16;100.00
34921;BME280;21128;50.016;20.002;2023-04-10T03:53:54;99616.12;;;6.17;100.00
34921;BME280;21128;50.016;20.002;2023-04-10T03:56:22;99610.06;;;6.16;100.00
34921;BME280;21128;50.016;20.002;2023-04-10T03:58:49;99615.19;;;6.18;100.00
34921;BME280;21128;50.016;20.002;2023-04-10T04:01:16;99616.02;;;6.18;100.00
34921;BME280;21128;50.016;20.002;2023-04-10T04:03:43;99613.31;;;6.20;100.00
34921;BME280;21128;50.016;20.002;2023-04-10T04:06:10;99608.92;;;6.20;100.00
34921;BME280;21128;50.016;20.002;2023-04-10T04:08:37;99615.92;;;6.20;100.00
34921;BME280;21128;50.016;20.002;2023-04-10T04:11:05;99613.20;;;6.21;100.00
34921;BME280;21128;50.016;20.002;2023-04-10T04:13:32;99614.98;;;6.21;100.00
34921;BME280;21128;50.016;20.002;2023-04-10T04:15:59;99619.20;;;6.24;100.00
34921;BME280;21128;50.016;20.002;2023-04-10T04:18:26;99617.32;;;6.26;100.00
34921;BME280;21128;50.016;20.002;2023-04-10T04:20:53;99615.64;;;6.25;100.00
34921;BME280;21128;50.016;20.002;2023-04-10T04:23:20;99621.50;;;6.28;100.00
34921;BME280;21128;50.016;20.002;2023-04-10T04:25:47;99621.50;;;6.28;100.00
34921;BME280;21128;50.016;20.002;2023-04-10T04:28:15;99623.10;;;6.31;100.00
34921;BME280;21128;50.016;20.002;2023-04-10T04:30:43;99620.39;;;6.32;100.00
34921;BME280;21128;50.016;20.002;2023-04-10T04:33:11;99630.83;;;6.32;100.00
34921;BME280;21128;50.016;20.002;2023-04-10T04:35:39;99633.44;;;6.32;100.00
34921;BME280;21128;50.016;20.002;2023-04-10T04:38:09;99632.50;;;6.33;100.00
34921;BME280;21128;50.016;20.002;2023-04-10T04:40:40;99628.95;;;6.34;100.00
34921;BME280;21128;50.016;20.002;2023-04-10T04:43:17;99636.79;;;6.34;100.00
34921;BME280;21128;50.016;20.002;2023-04-10T04:45:44;99626.34;;;6.34;100.00
34921;BME280;21128;50.016;20.002;2023-04-10T04:48:12;99634.08;;;6.36;100.00
34921;BME280;21128;50.016;20.002;2023-04-10T04:50:40;99628.02;;;6.35;100.00
34921;BME280;21128;50.016;20.002;2023-04-10T04:53:08;99636.79;;;6.34;100.00
34921;BME280;21128;50.016;20.002;2023-04-10T04:55:36;99632.50;;;6.33;100.00
34921;BME280;21128;50.016;20.002;2023-04-10T04:58:04;99642.01;;;6.34;100.00
34921;BME280;21128;50.016;20.002;2023-04-10T05:00:31;99640.23;;;6.35;100.00
34921;BME280;21128;50.016;20.002;2023-04-10T05:02:59;99649.73;;;6.36;100.00
34921;BME280;21128;50.016;20.002;2023-04-10T05:05:27;99652.45;;;6.34;100.00
34921;BME280;21128;50.016;20.002;2023-04-10T05:07:54;99644.72;;;6.33;100.00
34921;BME280;21128;50.016;20.002;2023-04-10T05:10:22;99647.23;;;6.34;100.00
34921;BME280;21128;50.016;20.002;2023-04-10T05:12:50;99655.80;;;6.36;100.00
34921;BME280;21128;50.016;20.002;2023-04-10T05:15:18;99648.70;;;6.38;100.00
34921;BME280;21128;50.016;20.002;2023-04-10T05:17:46;99655.63;;;6.39;100.00
34921;BME280;21128;50.016;20.002;2023-04-10T05:20:18;99650.41;;;6.39;100.00
34921;BME280;21128;50.016;20.002;2023-04-10T05:22:46;99659.07;;;6.40;100.00
34921;BME280;21128;50.016;20.002;2023-04-10T05:25:13;99665.97;;;6.41;100.00
34921;BME280;21128;50.016;20.002;2023-04-10T05:27:41;99659.07;;;6.40;100.00
34921;BME280;21128;50.016;20.002;2023-04-10T05:30:08;99668.67;;;6.39;100.00
34921;BME280;21128;50.016;20.002;2023-04-10T05:32:35;99673.90;;;6.39;100.00
34921;BME280;21128;50.016;20.002;2023-04-10T05:35:02;99673.03;;;6.39;100.00
34921;BME280;21128;50.016;20.002;2023-04-10T05:37:29;99672.39;;;6.35;100.00
34921;BME280;21128;50.016;20.002;2023-04-10T05:39:57;99671.76;;;6.32;100.00
34921;BME280;21128;50.016;20.002;2023-04-10T05:42:24;99664.00;;;6.30;100.00
34921;BME280;21128;50.016;20.002;2023-04-10T05:44:51;99659.71;;;6.29;100.00
34921;BME280;21128;50.016;20.002;2023-04-10T05:47:18;99668.21;;;6.33;100.00
34921;BME280;21128;50.016;20.002;2023-04-10T05:49:45;99668.21;;;6.33;100.00
34921;BME280;21128;50.016;20.002;2023-04-10T05:52:12;99667.27;;;6.34;100.00
34921;BME280;21128;50.016;20.002;2023-04-10T05:54:39;99661.31;;;6.32;100.00
34921;BME280;21128;50.016;20.002;2023-04-10T05:57:06;99657.03;;;6.31;100.00
34921;BME280;21128;50.016;20.002;2023-04-10T05:59:33;99672.59;;;6.32;100.00
34921;BME280;21128;50.016;20.002;2023-04-10T06:02:00;99658.61;;;6.33;100.00
34921;BME280;21128;50.016;20.002;2023-04-10T06:04:27;99668.95;;;6.35;100.00
34921;BME280;21128;50.016;20.002;2023-04-10T06:06:54;99667.17;;;6.35;100.00
34921;BME280;21128;50.016;20.002;2023-04-10T06:09:22;99662.79;;;6.36;100.00
34921;BME280;21128;50.016;20.002;2023-04-10T06:11:49;99656.45;;;6.40;100.00
34921;BME280;21128;50.016;20.002;2023-04-10T06:14:17;99661.38;;;6.44;100.00
34921;BME280;21128;50.016;20.002;2023-04-10T06:16:45;99656.05;;;6.46;100.00
34921;BME280;21128;50.016;20.002;2023-04-10T06:19:11;99659.33;;;6.49;100.00
34921;BME280;21128;50.016;20.002;2023-04-10T06:21:38;99663.61;;;6.51;100.00
34921;BME280;21128;50.016;20.002;2023-04-10T06:24:05;99660.16;;;6.50;100.00
34921;BME280;21128;50.016;20.002;2023-04-10T06:26:33;99666.86;;;6.54;100.00
34921;BME280;21128;50.016;20.002;2023-04-10T06:29:00;99669.36;;;6.56;100.00
34921;BME280;21128;50.016;20.002;2023-04-10T06:31:27;99671.80;;;6.59;100.00
34921;BME280;21128;50.016;20.002;2023-04-10T06:33:54;99680.17;;;6.64;100.00
34921;BME280;21128;50.016;20.002;2023-04-10T06:36:21;99679.27;;;6.65;100.00
34921;BME280;21128;50.016;20.002;2023-04-10T06:38:48;99678.32;;;6.66;100.00
34921;BME280;21128;50.016;20.002;2023-04-10T06:41:15;99666.00;;;6.68;100.00
34921;BME280;21128;50.016;20.002;2023-04-10T06:43:42;99668.41;;;6.71;100.00
34921;BME280;21128;50.016;20.002;2023-04-10T06:46:09;99663.00;;;6.74;100.00
34921;BME280;21128;50.016;20.002;2023-04-10T06:48:36;99668.02;;;6.77;100.00
34921;BME280;21128;50.016;20.002;2023-04-10T06:51:03;99662.80;;;6.77;100.00
34921;BME280;21128;50.016;20.002;2023-04-10T06:53:30;99667.81;;;6.80;100.00
34921;BME280;21128;50.016;20.002;2023-04-10T06:55:57;99674.64;;;6.83;100.00
34921;BME280;21128;50.016;20.002;2023-04-10T06:58:24;99669.10;;;6.87;100.00
34921;BME280;21128;50.016;20.002;2023-04-10T07:00:51;99678.33;;;6.93;100.00
34921;BME280;21128;50.016;20.002;2023-04-10T07:03:18;99671.95;;;6.97;100.00
34921;BME280;21128;50.016;20.002;2023-04-10T07:05:45;99681.30;;;7.01;100.00
34921;BME280;21128;50.016;20.002;2023-04-10T07:08:12;99680.45;;;7.00;100.00
34921;BME280;21128;50.016;20.002;2023-04-10T07:10:39;99685.58;;;7.02;100.00
34921;BME280;21128;50.016;20.002;2023-04-10T07:13:06;99681.19;;;7.02;100.00
34921;BME280;21128;50.016;20.002;2023-04-10T07:15:33;99683.80;;;7.02;100.00
34921;BME280;21128;50.016;20.002;2023-04-10T07:18:00;99687.91;;;7.07;100.00
34921;BME280;21128;50.016;20.002;2023-04-10T07:20:27;99688.53;;;7.10;100.00
34921;BME280;21128;50.016;20.002;2023-04-10T07:22:54;99691.14;;;7.10;100.00
34921;BME280;21128;50.016;20.002;2023-04-10T07:25:21;99680.06;;;7.07;100.00
34921;BME280;21128;50.016;20.002;2023-04-10T07:27:48;99676.59;;;7.06;100.00
34921;BME280;21128;50.016;20.002;2023-04-10T07:30:15;99681.08;;;7.04;100.00
34921;BME280;21128;50.016;20.002;2023-04-10T07:32:42;99673.34;;;7.02;100.00
34921;BME280;21128;50.016;20.002;2023-04-10T07:35:10;99674.39;;;7.00;100.00
34921;BME280;21128;50.016;20.002;2023-04-10T07:37:37;99677.95;;;6.99;100.00
34921;BME280;21128;50.016;20.002;2023-04-10T07:40:06;99668.51;;;6.96;100.00
34921;BME280;21128;50.016;20.002;2023-04-10T07:42:34;99670.39;;;6.94;100.00
34921;BME280;21128;50.016;20.002;2023-04-10T07:45:01;99670.39;;;6.94;100.00
34921;BME280;21128;50.016;20.002;2023-04-10T07:47:28;99678.23;;;6.94;100.00
34921;BME280;21128;50.016;20.002;2023-04-10T07:49:55;99680.84;;;6.94;100.00
34921;BME280;21128;50.016;20.002;2023-04-10T07:52:22;99684.39;;;6.93;100.00
34921;BME280;21128;50.016;20.002;2023-04-10T07:54:49;99679.06;;;6.95;100.00
34921;BME280;21128;50.016;20.002;2023-04-10T07:57:15;99682.34;;;6.98;100.00
34921;BME280;21128;50.016;20.002;2023-04-10T07:59:43;99682.13;;;7.01;100.00
34921;BME280;21128;50.016;20.002;2023-04-10T08:02:10;99680.14;;;7.05;100.00
34921;BME280;21128;50.016;20.002;2023-04-10T08:04:37;99679.30;;;7.04;100.00
34921;BME280;21128;50.016;20.002;2023-04-10T08:07:04;99680.91;;;7.07;100.00
34921;BME280;21128;50.016;20.002;2023-04-10T08:09:30;99677.14;;;7.11;100.00
34921;BME280;21128;50.016;20.002;2023-04-10T08:11:57;99675.18;;;7.15;100.00
34921;BME280;21128;50.016;20.002;2023-04-10T08:14:24;99678.20;;;7.21;100.00
34921;BME280;21128;50.016;20.002;2023-04-10T08:16:51;99681.77;;;7.20;100.00
34921;BME280;21128;50.016;20.002;2023-04-10T08:19:18;99687.72;;;7.22;100.00
34921;BME280;21128;50.016;20.002;2023-04-10T08:21:45;99686.70;;;7.25;100.00
34921;BME280;21128;50.016;20.002;2023-04-10T08:24:12;99683.88;;;7.28;100.00
34921;BME280;21128;50.016;20.002;2023-04-10T08:26:39;99684.43;;;7.33;100.00
34921;BME280;21128;50.016;20.002;2023-04-10T08:29:06;99691.33;;;7.34;100.00
34921;BME280;21128;50.016;20.002;2023-04-10T08:31:33;99691.11;;;7.37;100.00
34921;BME280;21128;50.016;20.002;2023-04-10T08:34:00;99684.44;;;7.46;100.00
34921;BME280;21128;50.016;20.002;2023-04-10T08:36:27;99689.37;;;7.50;100.00
34921;BME280;21128;50.016;20.002;2023-04-10T08:38:54;99679.43;;;7.55;100.00
34921;BME280;21128;50.016;20.002;2023-04-10T08:41:21;99685.50;;;7.56;100.00
34921;BME280;21128;50.016;20.002;2023-04-10T08:43:49;99685.20;;;7.60;100.00
34921;BME280;21128;50.016;20.002;2023-04-10T08:46:16;99680.52;;;7.66;100.00
34921;BME280;21128;50.016;20.002;2023-04-10T08:51:30;99684.37;;;7.60;100.00
34921;BME280;21128;50.016;20.002;2023-04-10T08:54:04;99689.81;;;7.57;100.00
34921;BME280;21128;50.016;20.002;2023-04-10T08:56:32;99686.44;;;7.55;100.00
34921;BME280;21128;50.016;20.002;2023-04-10T08:59:01;99676.81;;;7.55;100.00
34921;BME280;21128;50.016;20.002;2023-04-10T09:01:29;99676.30;;;7.63;100.00
34921;BME280;21128;50.016;20.002;2023-04-10T09:03:57;99680.52;;;7.66;100.00
34921;BME280;21128;50.016;20.002;2023-04-10T09:06:24;99673.91;;;7.73;100.00
34921;BME280;21128;50.016;20.002;2023-04-10T09:08:51;99674.98;;;7.83;100.00
34921;BME280;21128;50.016;20.002;2023-04-10T09:11:18;99668.58;;;7.87;100.00
34921;BME280;21128;50.016;20.002;2023-04-10T09:13:46;99676.43;;;7.87;100.00
34921;BME280;21128;50.016;20.002;2023-04-10T09:16:13;99659.59;;;7.91;100.00
34921;BME280;21128;50.016;20.002;2023-04-10T09:18:48;99672.87;;;8.01;100.00
34921;BME280;21128;50.016;20.002;2023-04-10T09:21:18;99667.20;;;8.07;100.00
34921;BME280;21128;50.016;20.002;2023-04-10T09:23:46;99663.11;;;8.15;100.00
34921;BME280;21128;50.016;20.002;2023-04-10T09:26:25;99678.09;;;8.13;100.00
34921;BME280;21128;50.016;20.002;2023-04-10T09:29:05;99667.01;;;8.10;100.00
34921;BME280;21128;50.016;20.002;2023-04-10T09:31:36;99668.56;;;8.12;100.00
34921;BME280;21128;50.016;20.002;2023-04-10T09:34:17;99668.56;;;8.12;100.00
34921;BME280;21128;50.016;20.002;2023-04-10T09:36:58;99669.93;;;8.18;100.00
34921;BME280;21128;50.016;20.002;2023-04-10T09:39:37;99668.15;;;8.18;100.00
34921;BME280;21128;50.016;20.002;2023-04-10T09:42:09;99665.31;;;8.22;100.00
34921;BME280;21128;50.016;20.002;2023-04-10T09:44:39;99662.58;;;8.23;100.00
34921;BME280;21128;50.016;20.002;2023-04-10T09:49:49;99665.75;;;8.41;100.00
34921;BME280;21128;50.016;20.002;2023-04-10T09:52:23;99660.69;;;8.51;100.00
34921;BME280;21128;50.016;20.002;2023-04-10T09:54:57;99655.22;;;8.54;100.00
34921;BME280;21128;50.016;20.002;2023-04-10T09:57:26;99652.89;;;8.62;100.00
34921;BME280;21128;50.016;20.002;2023-04-10T09:59:54;99642.19;;;8.65;100.00
34921;BME280;21128;50.016;20.002;2023-04-10T10:02:23;99645.44;;;8.68;100.00
34921;BME280;21128;50.016;20.002;2023-04-10T10:04:51;99644.05;;;8.76;100.00
34921;BME280;21128;50.016;20.002;2023-04-10T10:07:20;99646.20;;;8.82;100.00
34921;BME280;21128;50.016;20.002;2023-04-10T10:09:50;99645.48;;;8.80;100.00
34921;BME280;21128;50.016;20.002;2023-04-10T10:20:19;99640.80;;;8.96;100.00
34921;BME280;21128;50.016;20.002;2023-04-10T10:22:49;99641.41;;;8.99;100.00
34921;BME280;21128;50.016;20.002;2023-04-10T10:25:17;99634.28;;;9.01;100.00
34921;BME280;21128;50.016;20.002;2023-04-10T10:27:49;99633.81;;;9.08;100.00
34921;BME280;21128;50.016;20.002;2023-04-10T10:30:18;99632.53;;;9.13;100.00
34921;BME280;21128;50.016;20.002;2023-04-10T10:32:46;99626.97;;;9.18;100.00
34921;BME280;21128;50.016;20.002;2023-04-10T10:35:15;99628.53;;;9.31;100.00
34921;BME280;21128;50.016;20.002;2023-04-10T10:37:44;99622.39;;;9.44;100.00
34921;BME280;21128;50.016;20.002;2023-04-10T10:40:16;99620.86;;;9.52;100.00
34921;BME280;21128;50.016;20.002;2023-04-10T10:42:54;99617.98;;;9.55;100.00
34921;BME280;21128;50.016;20.002;2023-04-10T10:47:56;99613.95;;;9.74;100.00
34921;BME280;21128;50.016;20.002;2023-04-10T10:50:23;99614.45;;;9.79;100.00
34921;BME280;21128;50.016;20.002;2023-04-10T10:52:51;99610.98;;;9.78;100.00
34921;BME280;21128;50.016;20.002;2023-04-10T10:57:56;99617.53;;;9.73;100.00
34921;BME280;21128;50.016;20.002;2023-04-10T11:00:24;99606.57;;;9.79;100.00
34921;BME280;21128;50.016;20.002;2023-04-10T11:08:37;99586.63;;;10.32;100.00
34921;BME280;21128;50.016;20.002;2023-04-10T11:11:08;99592.33;;;10.49;100.00
34921;BME280;21128;50.016;20.002;2023-04-10T11:13:38;99589.58;;;10.50;100.00
34921;BME280;21128;50.016;20.002;2023-04-10T11:16:07;99587.55;;;10.54;100.00
34921;BME280;21128;50.016;20.002;2023-04-10T11:21:20;99574.47;;;11.27;100.00
34921;BME280;21128;50.016;20.002;2023-04-10T11:31:43;99564.25;;;12.26;100.00
34921;BME280;21128;50.016;20.002;2023-04-10T11:34:11;99558.42;;;12.22;100.00
34921;BME280;21128;50.016;20.002;2023-04-10T11:36:40;99564.09;;;12.18;100.00
34921;BME280;21128;50.016;20.002;2023-04-10T11:39:15;99553.34;;;12.59;100.00
34921;BME280;21128;50.016;20.002;2023-04-10T11:41:53;99560.31;;;12.89;100.00
34921;BME280;21128;50.016;20.002;2023-04-10T11:44:30;99551.97;;;12.75;100.00
34921;BME280;21128;50.016;20.002;2023-04-10T11:46:57;99547.38;;;12.67;100.00
34921;BME280;21128;50.016;20.002;2023-04-10T11:49:28;99533.80;;;12.72;100.00
34921;BME280;21128;50.016;20.002;2023-04-10T11:51:56;99542.25;;;12.65;100.00
34921;BME280;21128;50.016;20.002;2023-04-10T11:54:26;99534.20;;;12.48;100.00
34921;BME280;21128;50.016;20.002;2023-04-10T11:57:07;99535.72;;;12.50;100.00
34921;BME280;21128;50.016;20.002;2023-04-10T11:59:35;99530.88;;;12.55;100.00
34921;BME280;21128;50.016;20.002;2023-04-10T12:02:09;99518.81;;;12.62;100.00
34921;BME280;21128;50.016;20.002;2023-04-10T12:04:37;99531.86;;;12.54;100.00
34921;BME280;21128;50.016;20.002;2023-04-10T12:07:04;99522.56;;;12.70;100.00
34921;BME280;21128;50.016;20.002;2023-04-10T12:09:31;99521.99;;;12.66;100.00
34921;BME280;21128;50.016;20.002;2023-04-10T12:12:03;99513.69;;;12.71;100.00
34921;BME280;21128;50.016;20.002;2023-04-10T12:14:32;99511.97;;;13.08;100.00
34921;BME280;21128;50.016;20.002;2023-04-10T12:17:01;99511.08;;;13.46;100.00
34921;BME280;21128;50.016;20.002;2023-04-10T12:19:29;99510.85;;;13.67;100.00
34921;BME280;21128;50.016;20.002;2023-04-10T12:21:57;99495.69;;;13.69;100.00
34921;BME280;21128;50.016;20.002;2023-04-10T12:27:14;99495.89;;;13.86;100.00
34921;BME280;21128;50.016;20.002;2023-04-10T12:29:41;99489.22;;;14.09;100.00
34921;BME280;21128;50.016;20.002;2023-04-10T12:32:09;99482.92;;;13.92;100.00
34921;BME280;21128;50.016;20.002;2023-04-10T12:34:36;99471.31;;;14.03;100.00
34921;BME280;21128;50.016;20.002;2023-04-10T12:37:05;99475.05;;;14.28;100.00
34921;BME280;21128;50.016;20.002;2023-04-10T12:39:33;99473.88;;;14.58;100.00
34921;BME280;21128;50.016;20.002;2023-04-10T12:42:16;99470.83;;;14.88;100.00
34921;BME280;21128;50.016;20.002;2023-04-10T12:44:56;99465.63;;;15.05;100.00
34921;BME280;21128;50.016;20.002;2023-04-10T12:47:26;99455.97;;;14.96;100.00
34921;BME280;21128;50.016;20.002;2023-04-10T12:50:10;99453.86;;;14.99;100.00
34921;BME280;21128;50.016;20.002;2023-04-10T12:52:42;99450.81;;;14.68;100.00
34921;BME280;21128;50.016;20.002;2023-04-10T12:55:18;99441.66;;;14.27;100.00
34921;BME280;21128;50.016;20.002;2023-04-10T12:57:47;99442.13;;;13.77;100.00
34921;BME280;21128;50.016;20.002;2023-04-10T13:00:16;99440.95;;;13.34;100.00
34921;BME280;21128;50.016;20.002;2023-04-10T13:02:45;99429.75;;;13.22;100.00
34921;BME280;21128;50.016;20.002;2023-04-10T13:05:13;99418.22;;;13.14;100.00
34921;BME280;21128;50.016;20.002;2023-04-10T13:07:40;99427.42;;;13.00;100.00
34921;BME280;21128;50.016;20.002;2023-04-10T13:10:08;99415.63;;;12.94;100.00
34921;BME280;21128;50.016;20.002;2023-04-10T13:12:35;99407.45;;;12.98;100.00
34921;BME280;21128;50.016;20.002;2023-04-10T13:15:04;99402.13;;;13.07;100.00
34921;BME280;21128;50.016;20.002;2023-04-10T13:17:33;99384.39;;;13.37;100.00
34921;BME280;21128;50.016;20.002;2023-04-10T13:19:59;99403.72;;;13.65;100.00
34921;BME280;21128;50.016;20.002;2023-04-10T13:22:26;99392.50;;;13.80;100.00
34921;BME280;21128;50.016;20.002;2023-04-10T13:24:53;99393.11;;;14.10;100.00
34921;BME280;21128;50.016;20.002;2023-04-10T13:27:20;99390.59;;;14.62;100.00
34921;BME280;21128;50.016;20.002;2023-04-10T13:29:47;99395.01;;;14.79;100.00
34921;BME280;21128;50.016;20.002;2023-04-10T13:32:14;99385.02;;;14.91;100.00
34921;BME280;21128;50.016;20.002;2023-04-10T13:34:41;99385.15;;;15.15;100.00
34921;BME280;21128;50.016;20.002;2023-04-10T13:37:09;99378.17;;;15.48;100.00
34921;BME280;21128;50.016;20.002;2023-04-10T13:39:38;99374.81;;;15.89;100.00
34921;BME280;21128;50.016;20.002;2023-04-10T13:42:05;99380.62;;;15.84;100.00